createdAt,value
2018-01-21T00:00:44.497Z,40.14
2018-01-21T00:03:12.076Z,40.04
2018-01-21T00:05:39.619Z,40.00
2018-01-21T00:08:07.241Z,39.97
2018-01-21T00:10:34.793Z,39.96
2018-01-21T00:13:02.405Z,39.95
2018-01-21T00:15:30.885Z,39.91
2018-01-21T00:17:58.427Z,39.91
2018-01-21T00:20:25.975Z,39.88
2018-01-21T00:22:53.457Z,39.89
2018-01-21T00:25:20.937Z,39.89
2018-01-21T00:27:48.482Z,39.77
2018-01-21T00:30:15.967Z,39.71
2018-01-21T00:32:43.449Z,39.74
2018-01-21T00:35:10.997Z,39.76
2018-01-21T00:37:38.473Z,39.76
2018-01-21T00:40:06.026Z,39.73
2018-01-21T00:42:33.572Z,39.69
2018-01-21T00:45:01.145Z,39.67
2018-01-21T00:47:28.764Z,39.67
2018-01-21T00:49:56.253Z,39.67
2018-01-21T00:52:23.816Z,39.62
2018-01-21T00:54:51.361Z,39.55
2018-01-21T00:57:18.833Z,39.51
2018-01-21T00:59:46.375Z,39.45
2018-01-21T01:02:13.919Z,39.41
2018-01-21T01:04:41.479Z,39.40
2018-01-21T01:07:08.956Z,39.43
2018-01-21T01:09:36.433Z,39.48
2018-01-21T01:12:03.976Z,39.43
2018-01-21T01:14:31.598Z,39.44
2018-01-21T01:16:59.070Z,39.48
2018-01-21T01:19:26.553Z,39.39
2018-01-21T01:21:54.163Z,39.42
2018-01-21T01:24:21.641Z,39.37
2018-01-21T01:26:49.229Z,39.42
2018-01-21T01:29:16.792Z,39.24
2018-01-21T01:31:44.265Z,39.20
2018-01-21T01:34:11.802Z,39.15
2018-01-21T01:36:39.338Z,39.15
2018-01-21T01:39:06.890Z,39.15
2018-01-21T01:41:34.509Z,39.15
2018-01-21T01:44:01.985Z,39.15
2018-01-21T01:46:29.609Z,39.14
2018-01-21T01:48:57.179Z,39.17
2018-01-21T01:51:24.719Z,39.15
2018-01-21T01:53:52.267Z,39.10
2018-01-21T01:56:19.833Z,39.11
2018-01-21T01:58:47.379Z,39.10
2018-01-21T02:01:14.922Z,39.18
2018-01-21T02:03:42.468Z,39.21
2018-01-21T02:06:09.994Z,39.13
2018-01-21T02:08:37.524Z,39.06
2018-01-21T02:11:05.080Z,38.89
2018-01-21T02:13:32.710Z,38.80
2018-01-21T02:16:00.250Z,38.71
2018-01-21T02:18:27.736Z,38.67
2018-01-21T02:20:55.223Z,38.63
2018-01-21T02:23:22.703Z,38.58
2018-01-21T02:25:50.317Z,39.88
2018-01-21T02:28:17.937Z,39.81
2018-01-21T02:30:45.553Z,39.56
2018-01-21T02:33:13.107Z,39.41
2018-01-21T02:35:40.717Z,39.29
2018-01-21T02:38:08.226Z,39.26
2018-01-21T02:40:35.849Z,39.19
2018-01-21T02:43:03.432Z,39.14
2018-01-21T02:45:31.048Z,39.11
2018-01-21T02:47:58.702Z,39.03
2018-01-21T02:50:26.349Z,38.98
2018-01-21T02:52:53.829Z,38.91
2018-01-21T02:55:21.456Z,38.79
2018-01-21T02:57:49.077Z,38.70
2018-01-21T03:00:16.623Z,38.60
2018-01-21T03:02:44.248Z,38.55
2018-01-21T03:05:11.877Z,38.51
2018-01-21T03:07:39.509Z,38.45
2018-01-21T03:10:07.095Z,38.43
2018-01-21T03:12:34.685Z,38.37
2018-01-21T03:15:02.347Z,38.33
2018-01-21T03:17:29.960Z,38.31
2018-01-21T03:19:57.573Z,38.27
2018-01-21T03:22:25.123Z,38.26
2018-01-21T03:24:52.597Z,38.26
2018-01-21T03:27:20.134Z,38.24
2018-01-21T03:29:47.608Z,38.22
2018-01-21T03:32:15.085Z,38.23
2018-01-21T03:34:42.637Z,38.16
2018-01-21T03:37:10.244Z,38.03
2018-01-21T03:39:37.721Z,38.01
2018-01-21T03:42:05.245Z,37.87
2018-01-21T03:44:32.786Z,37.80
2018-01-21T03:47:00.441Z,37.70
2018-01-21T03:49:27.917Z,37.69
2018-01-21T03:51:55.413Z,37.68
2018-01-21T03:54:22.980Z,37.62
2018-01-21T03:56:50.538Z,37.62
2018-01-21T03:59:18.074Z,37.56
2018-01-21T04:01:45.549Z,37.59
2018-01-21T04:04:13.094Z,37.54
2018-01-21T04:06:40.646Z,37.49
2018-01-21T04:09:08.197Z,37.43
2018-01-21T04:11:35.738Z,37.37
2018-01-21T04:14:03.313Z,37.37
2018-01-21T04:16:30.866Z,37.31
2018-01-21T04:18:58.488Z,37.31
2018-01-21T04:21:25.961Z,37.22
2018-01-21T04:23:53.511Z,37.15
2018-01-21T04:26:21.017Z,37.20
2018-01-21T04:28:48.638Z,37.14
2018-01-21T04:31:16.187Z,37.12
2018-01-21T04:33:43.657Z,37.14
2018-01-21T04:36:11.209Z,37.02
2018-01-21T04:38:38.761Z,37.00
2018-01-21T04:41:06.296Z,37.01
2018-01-21T04:43:33.840Z,36.92
2018-01-21T04:46:01.391Z,36.94
2018-01-21T04:48:29.007Z,36.94
2018-01-21T04:50:56.547Z,36.91
2018-01-21T04:53:24.021Z,36.99
2018-01-21T04:55:51.569Z,37.00
2018-01-21T04:58:19.115Z,37.01
2018-01-21T05:00:46.661Z,37.01
2018-01-21T05:03:14.207Z,37.04
2018-01-21T05:05:41.752Z,37.05
2018-01-21T05:08:09.305Z,37.08
2018-01-21T05:10:36.920Z,37.05
2018-01-21T05:13:04.541Z,37.06
2018-01-21T05:15:32.161Z,37.00
2018-01-21T05:17:59.783Z,37.01
2018-01-21T05:20:27.342Z,36.95
2018-01-21T05:22:54.889Z,36.94
2018-01-21T05:25:22.363Z,37.06
2018-01-21T05:27:50.214Z,37.12
2018-01-21T05:30:17.759Z,37.28
2018-01-21T05:32:45.237Z,37.47
2018-01-21T05:35:12.781Z,37.60
2018-01-21T05:37:40.359Z,38.14
2018-01-21T05:40:07.898Z,38.32
2018-01-21T05:42:35.476Z,38.56
2018-01-21T05:45:03.096Z,38.71
2018-01-21T05:47:30.651Z,38.91
2018-01-21T05:49:58.140Z,39.11
2018-01-21T05:52:25.773Z,38.89
2018-01-21T05:54:53.425Z,38.58
2018-01-21T05:57:20.971Z,38.14
2018-01-21T05:59:48.518Z,37.85
2018-01-21T06:02:16.058Z,37.70
2018-01-21T06:04:43.611Z,37.65
2018-01-21T06:07:11.175Z,37.63
2018-01-21T06:09:38.768Z,37.56
2018-01-21T06:12:06.423Z,37.35
2018-01-21T06:14:33.968Z,37.30
2018-01-21T06:17:01.538Z,37.40
2018-01-21T06:19:29.371Z,37.35
2018-01-21T06:21:57.134Z,37.36
2018-01-21T06:24:24.613Z,37.40
2018-01-21T06:26:52.166Z,37.39
2018-01-21T06:29:19.742Z,37.40
2018-01-21T06:31:47.300Z,37.38
2018-01-21T06:34:15.032Z,37.60
2018-01-21T06:36:42.602Z,37.87
2018-01-21T06:39:10.159Z,37.92
2018-01-21T06:41:38.324Z,38.14
2018-01-21T06:44:06.708Z,38.80
2018-01-21T06:46:34.274Z,38.43
2018-01-21T06:49:01.834Z,38.23
2018-01-21T06:51:29.393Z,38.14
2018-01-21T06:53:57.756Z,38.54
2018-01-21T06:56:25.520Z,38.31
2018-01-21T06:58:53.010Z,38.48
2018-01-21T07:01:20.504Z,38.66
2018-01-21T07:03:48.310Z,39.25
2018-01-21T07:06:15.797Z,40.07
2018-01-21T07:08:43.381Z,39.48
2018-01-21T07:11:10.930Z,39.39
2018-01-21T07:13:38.553Z,39.44
2018-01-21T07:16:06.045Z,39.59
2018-01-21T07:18:33.533Z,40.22
2018-01-21T07:21:01.177Z,40.57
2018-01-21T07:23:28.797Z,40.93
2018-01-21T07:25:56.493Z,40.69
2018-01-21T07:28:24.121Z,40.91
2018-01-21T07:30:51.776Z,40.81
2018-01-21T07:33:19.331Z,41.09
2018-01-21T07:35:46.896Z,40.85
2018-01-21T07:38:14.461Z,40.56
2018-01-21T07:40:42.019Z,40.44
2018-01-21T07:43:09.506Z,40.75
2018-01-21T07:45:37.071Z,41.41
2018-01-21T07:48:04.637Z,41.23
2018-01-21T07:50:32.219Z,41.60
2018-01-21T07:52:59.770Z,42.24
2018-01-21T07:55:27.414Z,42.40
2018-01-21T07:57:54.901Z,42.23
2018-01-21T08:00:22.451Z,42.42
2018-01-21T08:02:50.006Z,42.38
2018-01-21T08:05:17.494Z,42.33
2018-01-21T08:07:45.048Z,42.29
2018-01-21T08:10:12.756Z,42.50
2018-01-21T08:12:40.322Z,42.40
2018-01-21T08:15:08.041Z,42.36
2018-01-21T08:17:35.736Z,42.37
2018-01-21T08:20:03.495Z,42.19
2018-01-21T08:22:31.080Z,42.24
2018-01-21T08:24:58.565Z,41.70
2018-01-21T08:27:26.185Z,41.50
2018-01-21T08:29:54.036Z,41.63
2018-01-21T08:32:21.613Z,41.50
2018-01-21T08:34:54.631Z,41.61
2018-01-21T08:37:27.818Z,41.75
2018-01-21T08:40:00.787Z,41.71
2018-01-21T08:42:38.284Z,41.73
2018-01-21T08:45:05.854Z,41.75
2018-01-21T08:47:33.540Z,41.85
2018-01-21T08:50:01.025Z,41.86
2018-01-21T08:52:28.677Z,41.95
2018-01-21T08:54:56.341Z,41.89
2018-01-21T08:57:23.977Z,41.89
2018-01-21T08:59:51.600Z,41.77
2018-01-21T09:02:19.222Z,41.84
2018-01-21T09:04:46.857Z,41.70
2018-01-21T09:07:14.510Z,41.63
2018-01-21T09:09:42.011Z,41.67
2018-01-21T09:12:09.567Z,41.28
2018-01-21T09:14:37.202Z,41.13
2018-01-21T09:17:04.888Z,41.16
2018-01-21T09:19:32.565Z,42.39
2018-01-21T09:22:01.894Z,42.00
2018-01-21T09:24:29.399Z,41.57
2018-01-21T09:26:57.063Z,41.44
2018-01-21T09:29:24.729Z,40.93
2018-01-21T09:31:52.230Z,40.35
2018-01-21T09:34:19.783Z,39.84
2018-01-21T09:36:47.458Z,39.59
2018-01-21T09:39:15.109Z,39.43
2018-01-21T09:41:42.737Z,39.02
2018-01-21T09:44:10.231Z,38.81
2018-01-21T09:46:37.778Z,39.13
2018-01-21T09:49:05.311Z,39.24
2018-01-21T09:51:32.879Z,39.11
2018-01-21T09:54:00.439Z,38.95
2018-01-21T09:56:28.029Z,39.00
2018-01-21T09:58:55.688Z,38.93
2018-01-21T10:01:23.256Z,38.64
2018-01-21T10:03:50.823Z,38.81
2018-01-21T10:06:18.317Z,38.79
2018-01-21T10:08:45.895Z,38.50
2018-01-21T10:11:13.547Z,38.45
2018-01-21T10:13:41.124Z,38.34
2018-01-21T10:16:08.755Z,38.24
2018-01-21T10:18:36.393Z,38.24
2018-01-21T10:21:03.959Z,38.20
2018-01-21T10:23:31.541Z,38.17
2018-01-21T10:25:59.102Z,38.17
2018-01-21T10:28:26.662Z,38.01
2018-01-21T10:30:54.289Z,38.41
2018-01-21T10:33:21.860Z,38.34
2018-01-21T10:35:49.385Z,38.26
2018-01-21T10:38:16.958Z,38.05
2018-01-21T10:40:44.451Z,37.82
2018-01-21T10:43:12.040Z,37.80
2018-01-21T10:45:39.615Z,37.80
2018-01-21T10:48:07.101Z,37.81
2018-01-21T10:50:34.674Z,37.71
2018-01-21T10:53:02.230Z,37.70
2018-01-21T10:55:29.795Z,37.77
2018-01-21T10:57:57.366Z,37.91
2018-01-21T11:00:24.947Z,38.40
2018-01-21T11:02:52.510Z,38.29
2018-01-21T11:05:20.115Z,38.09
2018-01-21T11:07:47.662Z,38.08
2018-01-21T11:10:15.220Z,37.97
2018-01-21T11:12:42.854Z,37.92
2018-01-21T11:15:10.489Z,37.77
2018-01-21T11:17:38.155Z,37.86
2018-01-21T11:20:05.713Z,37.77
2018-01-21T11:22:33.344Z,37.77
2018-01-21T11:25:00.838Z,37.55
2018-01-21T11:27:28.489Z,37.47
2018-01-21T11:29:56.117Z,37.30
2018-01-21T11:32:23.742Z,37.24
2018-01-21T11:34:51.322Z,37.40
2018-01-21T11:37:18.874Z,37.21
2018-01-21T11:39:46.508Z,36.88
2018-01-21T11:42:14.068Z,37.02
2018-01-21T11:44:41.627Z,36.97
2018-01-21T11:47:10.801Z,36.87
2018-01-21T11:49:36.861Z,36.77
2018-01-21T11:52:04.428Z,36.73
2018-01-21T11:54:32.053Z,36.70
2018-01-21T11:56:59.551Z,36.80
2018-01-21T11:59:27.173Z,36.71
2018-01-21T12:01:54.726Z,36.86
2018-01-21T12:04:22.237Z,36.94
2018-01-21T12:06:49.743Z,37.09
2018-01-21T12:09:17.298Z,37.09
2018-01-21T12:11:44.863Z,37.25
2018-01-21T12:14:12.394Z,37.32
2018-01-21T12:16:39.959Z,37.31
2018-01-21T12:19:07.742Z,37.30
2018-01-21T12:21:35.249Z,37.67
2018-01-21T12:24:02.800Z,38.58
2018-01-21T12:26:30.423Z,39.68
2018-01-21T12:28:57.988Z,40.78
2018-01-21T12:31:25.563Z,41.90
2018-01-21T12:33:53.057Z,41.69
2018-01-21T12:36:20.621Z,42.38
2018-01-21T12:38:48.368Z,42.93
2018-01-21T12:41:15.940Z,42.71
2018-01-21T12:43:46.488Z,43.04
2018-01-21T12:46:14.039Z,43.28
2018-01-21T12:48:41.610Z,43.38
2018-01-21T12:51:09.200Z,43.58
2018-01-21T12:53:36.766Z,43.67
2018-01-21T12:56:04.250Z,43.85
2018-01-21T12:58:32.966Z,43.89
2018-01-21T13:01:00.459Z,43.78
2018-01-21T13:03:28.108Z,44.07
2018-01-21T13:05:56.002Z,45.30
2018-01-21T13:08:24.457Z,45.96
2018-01-21T13:10:52.089Z,45.40
2018-01-21T13:13:19.714Z,45.25
2018-01-21T13:15:47.307Z,45.47
2018-01-21T13:18:14.887Z,45.81
2018-01-21T13:21:01.925Z,45.83
2018-01-21T13:23:29.417Z,45.93
2018-01-21T13:25:56.974Z,45.63
2018-01-21T13:28:24.544Z,45.27
2018-01-21T13:30:52.039Z,45.09
2018-01-21T13:33:19.606Z,44.97
2018-01-21T13:35:47.141Z,44.92
2018-01-21T13:38:14.711Z,45.01
2018-01-21T13:40:42.283Z,44.82
2018-01-21T13:43:09.906Z,44.61
2018-01-21T13:45:37.462Z,44.25
2018-01-21T13:48:05.023Z,44.02
2018-01-21T13:50:32.580Z,43.91
2018-01-21T13:53:00.133Z,43.80
2018-01-21T13:55:27.613Z,43.79
2018-01-21T13:57:55.297Z,43.76
2018-01-21T14:00:22.881Z,43.70
2018-01-21T14:02:50.440Z,43.64
2018-01-21T14:05:18.118Z,43.58
2018-01-21T14:07:45.687Z,43.46
2018-01-21T14:10:13.185Z,43.46
2018-01-21T14:12:41.918Z,43.61
2018-01-21T14:15:09.523Z,43.50
2018-01-21T14:17:39.904Z,43.33
2018-01-21T14:20:09.779Z,43.31
2018-01-21T14:22:37.336Z,43.30
2018-01-21T14:25:08.187Z,43.22
2018-01-21T14:27:35.782Z,43.00
2018-01-21T14:30:03.335Z,42.65
2018-01-21T14:32:30.913Z,42.49
2018-01-21T14:34:59.409Z,42.44
2018-01-21T14:37:26.905Z,42.43
2018-01-21T14:39:54.530Z,42.42
2018-01-21T14:42:22.017Z,42.91
2018-01-21T14:44:49.653Z,43.17
2018-01-21T14:47:17.217Z,43.07
2018-01-21T14:49:44.775Z,42.84
2018-01-21T14:52:12.338Z,42.63
2018-01-21T14:54:39.850Z,43.38
2018-01-21T14:57:07.350Z,43.76
2018-01-21T14:59:34.853Z,44.07
2018-01-21T15:02:02.337Z,44.22
2018-01-21T15:04:29.965Z,44.59
2018-01-21T15:06:57.531Z,44.70
2018-01-21T15:09:25.157Z,44.79
2018-01-21T15:11:52.690Z,44.69
2018-01-21T15:14:20.244Z,44.62
2018-01-21T15:16:47.798Z,44.62
2018-01-21T15:19:15.350Z,44.52
2018-01-21T15:21:42.993Z,44.71
2018-01-21T15:24:10.493Z,44.64
2018-01-21T15:26:38.053Z,44.77
2018-01-21T15:29:05.682Z,45.02
2018-01-21T15:31:33.177Z,45.15
2018-01-21T15:34:00.805Z,45.63
2018-01-21T15:36:28.302Z,45.84
2018-01-21T15:38:55.927Z,45.95
2018-01-21T15:41:23.557Z,46.30
2018-01-21T15:43:51.113Z,46.20
2018-01-21T15:46:18.679Z,46.80
2018-01-21T15:48:46.250Z,47.07
2018-01-21T15:51:13.869Z,47.36
2018-01-21T15:53:41.432Z,46.80
2018-01-21T15:56:08.995Z,46.43
2018-01-21T15:58:36.557Z,45.94
2018-01-21T16:01:04.549Z,45.39
2018-01-21T16:03:32.177Z,44.55
2018-01-21T16:05:59.756Z,44.11
2018-01-21T16:08:28.135Z,43.66
2018-01-21T16:10:55.744Z,43.45
2018-01-21T16:13:23.414Z,43.24
2018-01-21T16:15:55.810Z,43.03
2018-01-21T16:18:30.385Z,42.92
2018-01-21T16:27:08.505Z,43.79
2018-01-21T16:29:36.064Z,44.28
2018-01-21T16:32:11.298Z,44.64
2018-01-21T16:34:41.581Z,44.41
2018-01-21T16:37:14.902Z,43.59
2018-01-21T16:39:42.536Z,44.86
2018-01-21T16:42:10.158Z,44.08
2018-01-21T16:44:38.917Z,43.61
2018-01-21T16:47:07.602Z,42.76
2018-01-21T16:49:35.181Z,42.39
2018-01-21T16:52:02.750Z,42.62
2018-01-21T16:54:30.333Z,42.50
2018-01-21T16:56:57.870Z,42.33
2018-01-21T16:59:25.502Z,42.98
2018-01-21T17:01:53.138Z,43.33
2018-01-21T17:04:20.763Z,44.00
2018-01-21T17:06:48.431Z,43.75
2018-01-21T18:37:13.122Z,45.10
2018-01-21T18:39:40.794Z,35.59
2018-01-21T18:42:08.290Z,31.15
2018-01-21T18:44:35.938Z,32.87
2018-01-21T18:47:03.513Z,39.12
2018-01-21T18:49:31.117Z,40.55
2018-01-21T18:51:58.617Z,41.37
2018-01-21T18:54:26.276Z,41.83
2018-01-21T18:56:53.855Z,42.68
2018-01-21T18:59:21.540Z,42.56
2018-01-21T19:01:49.590Z,42.51
2018-01-21T19:04:17.218Z,42.53
2018-01-21T19:06:44.845Z,42.41
2018-01-21T19:09:12.377Z,42.38
2018-01-21T19:11:39.948Z,42.46
2018-01-21T19:14:07.598Z,42.46
2018-01-21T19:16:35.163Z,42.44
2018-01-21T19:19:02.742Z,42.39
2018-01-21T19:21:30.315Z,42.47
2018-01-21T19:23:58.003Z,42.59
2018-01-21T19:26:25.658Z,42.74
2018-01-21T19:28:53.320Z,42.45
2018-01-21T19:31:20.871Z,42.30
2018-01-21T19:33:48.425Z,42.28
2018-01-21T19:36:15.995Z,42.22
2018-01-21T19:39:01.227Z,42.23
2018-01-21T19:41:28.795Z,42.78
2018-01-21T19:44:11.917Z,42.86
2018-01-21T19:46:39.479Z,43.03
2018-01-21T19:49:07.114Z,43.29
2018-01-21T19:51:34.601Z,43.25
2018-01-21T19:54:02.096Z,43.25
2018-01-21T19:56:29.789Z,43.07
2018-01-21T19:58:57.417Z,43.00
2018-01-21T20:01:25.057Z,42.89
2018-01-21T20:03:52.555Z,42.83
2018-01-21T20:06:20.069Z,42.78
2018-01-21T20:08:47.564Z,42.75
2018-01-21T20:11:15.119Z,42.44
2018-01-21T20:13:42.741Z,42.32
2018-01-21T20:16:10.232Z,42.26
2018-01-21T20:18:37.815Z,42.26
2018-01-21T20:21:05.437Z,42.27
2018-01-21T20:23:32.989Z,42.22
2018-01-21T20:26:00.552Z,41.99
2018-01-21T20:28:28.049Z,41.99
2018-01-21T20:30:55.622Z,42.02
2018-01-21T20:33:23.207Z,41.93
2018-01-21T20:35:50.830Z,41.91
2018-01-21T20:38:18.392Z,41.95
2018-01-21T20:40:46.186Z,41.94
2018-01-21T20:43:13.703Z,42.08
2018-01-21T20:45:41.345Z,41.93
2018-01-21T20:48:08.982Z,41.82
2018-01-21T20:50:36.658Z,41.81
2018-01-21T20:56:05.395Z,41.82
2018-01-21T20:58:32.892Z,41.95
2018-01-21T21:01:00.446Z,41.84
2018-01-21T21:03:28.038Z,41.93
2018-01-21T21:05:55.529Z,41.99
2018-01-21T21:08:23.041Z,42.26
2018-01-21T21:10:50.606Z,42.34
2018-01-21T21:13:18.179Z,42.46
2018-01-21T21:15:46.645Z,42.67
2018-01-21T21:18:14.994Z,42.66
2018-01-21T21:20:42.594Z,43.39
2018-01-21T21:23:10.163Z,42.99
2018-01-21T21:25:37.720Z,42.87
2018-01-21T21:28:05.353Z,42.78
2018-01-21T21:30:32.992Z,42.68
2018-01-21T21:33:01.420Z,42.54
2018-01-21T21:35:28.984Z,42.39
2018-01-21T21:37:56.571Z,42.22
2018-01-21T21:40:24.222Z,42.12
2018-01-21T21:42:51.780Z,42.05
2018-01-21T21:45:20.896Z,41.98
2018-01-21T21:47:50.542Z,41.89
2018-01-21T21:50:18.171Z,41.82
2018-01-21T21:52:45.730Z,41.74
2018-01-21T21:55:18.465Z,41.62
2018-01-21T21:57:46.095Z,41.56
2018-01-21T22:00:13.662Z,41.52
2018-01-21T22:02:41.157Z,41.47
2018-01-21T22:05:08.792Z,41.39
2018-01-21T22:07:41.824Z,41.37
2018-01-21T22:10:10.277Z,41.29
2018-01-21T22:12:37.781Z,41.26
2018-01-21T22:15:07.185Z,41.22
2018-01-21T22:17:34.813Z,41.10
2018-01-21T22:20:02.303Z,41.02
2018-01-21T22:22:30.029Z,41.01
2018-01-21T22:25:01.474Z,41.01
2018-01-21T22:27:28.973Z,40.92
2018-01-21T22:29:58.548Z,40.87
2018-01-21T22:32:26.031Z,40.77
2018-01-21T22:34:53.669Z,40.72
2018-01-21T22:37:21.222Z,40.68
2018-01-21T22:39:48.815Z,40.57
2018-01-21T22:42:16.450Z,40.55
2018-01-21T22:44:44.137Z,40.56
2018-01-21T22:47:11.892Z,40.59
2018-01-21T22:49:41.134Z,40.58
2018-01-21T22:52:08.773Z,40.56
2018-01-21T22:54:36.257Z,40.52
2018-01-21T22:57:03.878Z,40.49
2018-01-21T22:59:31.434Z,40.49
2018-01-21T23:01:58.917Z,40.47
2018-01-21T23:04:26.557Z,40.38
2018-01-21T23:06:54.201Z,40.32
2018-01-21T23:09:21.701Z,40.26
2018-01-21T23:11:49.252Z,40.24
2018-01-21T23:14:16.817Z,40.21
2018-01-21T23:16:44.366Z,40.21
2018-01-21T23:19:12.000Z,40.16
2018-01-21T23:21:39.558Z,40.26
2018-01-21T23:24:07.189Z,40.31
2018-01-21T23:26:34.690Z,40.22
2018-01-21T23:29:02.239Z,40.15
2018-01-21T23:31:29.736Z,40.04
2018-01-21T23:33:57.286Z,40.25
2018-01-21T23:36:24.843Z,40.41
2018-01-21T23:38:52.334Z,40.13
2018-01-21T23:41:19.884Z,40.10
2018-01-21T23:43:47.363Z,40.14
2018-01-21T23:46:14.986Z,40.11
2018-01-21T23:48:42.479Z,40.11
2018-01-21T23:51:09.956Z,40.05
2018-01-21T23:53:37.592Z,40.02
2018-01-21T23:56:05.205Z,39.99
2018-01-21T23:58:32.764Z,39.93
